sensor_id;sensor_type;location;lat;lon;timestamp;P1;durP1;ratioP1;P2;durP2;ratioP2
9052;SDS011;4561;47.450;7.516;2023-08-17T00:01:06;9.90;;;6.30;;
9052;SDS011;4561;47.450;7.516;2023-08-17T00:04:27;6.50;;;5.90;;
9052;SDS011;4561;47.450;7.516;2023-08-17T00:07:49;7.33;;;5.77;;
9052;SDS011;4561;47.450;7.516;2023-08-17T00:11:10;6.27;;;5.67;;
9052;SDS011;4561;47.450;7.516;2023-08-17T00:14:30;8.33;;;5.57;;
9052;SDS011;4561;47.450;7.516;2023-08-17T00:17:53;7.10;;;5.60;;
9052;SDS011;4561;47.450;7.516;2023-08-17T00:21:14;7.00;;;6.07;;
9052;SDS011;4561;47.450;7.516;2023-08-17T00:24:34;6.17;;;5.67;;
9052;SDS011;4561;47.450;7.516;2023-08-17T00:27:54;6.97;;;6.30;;
9052;SDS011;4561;47.450;7.516;2023-08-17T00:31:20;7.23;;;5.80;;
9052;SDS011;4561;47.450;7.516;2023-08-17T00:34:41;6.37;;;5.70;;
9052;SDS011;4561;47.450;7.516;2023-08-17T00:38:04;8.07;;;5.53;;
9052;SDS011;4561;47.450;7.516;2023-08-17T00:41:24;7.33;;;5.93;;
9052;SDS011;4561;47.450;7.516;2023-08-17T00:44:44;8.27;;;6.00;;
9052;SDS011;4561;47.450;7.516;2023-08-17T00:48:05;7.37;;;6.33;;
9052;SDS011;4561;47.450;7.516;2023-08-17T00:51:27;9.40;;;5.97;;
9052;SDS011;4561;47.450;7.516;2023-08-17T00:54:48;6.60;;;6.10;;
9052;SDS011;4561;47.450;7.516;2023-08-17T00:58:11;8.30;;;6.37;;
9052;SDS011;4561;47.450;7.516;2023-08-17T01:01:34;7.03;;;6.10;;
9052;SDS011;4561;47.450;7.516;2023-08-17T01:04:54;7.23;;;5.77;;
9052;SDS011;4561;47.450;7.516;2023-08-17T01:08:15;7.07;;;5.87;;
9052;SDS011;4561;47.450;7.516;2023-08-17T01:15:24;6.57;;;5.70;;
9052;SDS011;4561;47.450;7.516;2023-08-17T01:18:51;9.93;;;5.50;;
9052;SDS011;4561;47.450;7.516;2023-08-17T01:22:14;7.80;;;6.27;;
9052;SDS011;4561;47.450;7.516;2023-08-17T01:25:41;10.13;;;5.70;;
9052;SDS011;4561;47.450;7.516;2023-08-17T01:29:01;5.87;;;5.27;;
9052;SDS011;4561;47.450;7.516;2023-08-17T01:32:27;6.53;;;6.03;;
9052;SDS011;4561;47.450;7.516;2023-08-17T01:39:36;8.13;;;6.20;;
9052;SDS011;4561;47.450;7.516;2023-08-17T01:42:58;6.87;;;5.97;;
9052;SDS011;4561;47.450;7.516;2023-08-17T01:46:18;7.47;;;5.87;;
9052;SDS011;4561;47.450;7.516;2023-08-17T01:49:39;6.50;;;5.90;;
9052;SDS011;4561;47.450;7.516;2023-08-17T01:52:59;6.33;;;5.73;;
9052;SDS011;4561;47.450;7.516;2023-08-17T01:56:20;6.70;;;5.70;;
9052;SDS011;4561;47.450;7.516;2023-08-17T01:59:40;6.77;;;6.00;;
9052;SDS011;4561;47.450;7.516;2023-08-17T02:03:00;7.67;;;6.00;;
9052;SDS011;4561;47.450;7.516;2023-08-17T02:06:21;8.73;;;6.00;;
9052;SDS011;4561;47.450;7.516;2023-08-17T02:09:41;6.00;;;5.40;;
9052;SDS011;4561;47.450;7.516;2023-08-17T02:13:04;7.57;;;6.53;;
9052;SDS011;4561;47.450;7.516;2023-08-17T02:16:24;9.73;;;6.57;;
9052;SDS011;4561;47.450;7.516;2023-08-17T02:19:45;6.90;;;5.70;;
9052;SDS011;4561;47.450;7.516;2023-08-17T02:23:07;7.70;;;5.90;;
9052;SDS011;4561;47.450;7.516;2023-08-17T02:26:30;6.60;;;6.00;;
9052;SDS011;4561;47.450;7.516;2023-08-17T02:29:50;6.90;;;6.20;;
9052;SDS011;4561;47.450;7.516;2023-08-17T02:33:10;7.07;;;5.77;;
9052;SDS011;4561;47.450;7.516;2023-08-17T02:36:31;7.70;;;6.97;;
9052;SDS011;4561;47.450;7.516;2023-08-17T02:39:52;7.13;;;6.27;;
9052;SDS011;4561;47.450;7.516;2023-08-17T02:43:12;11.33;;;6.47;;
9052;SDS011;4561;47.450;7.516;2023-08-17T02:46:38;6.53;;;5.80;;
9052;SDS011;4561;47.450;7.516;2023-08-17T02:49:58;7.77;;;7.13;;
9052;SDS011;4561;47.450;7.516;2023-08-17T02:53:21;7.37;;;6.30;;
9052;SDS011;4561;47.450;7.516;2023-08-17T02:56:41;9.87;;;6.60;;
9052;SDS011;4561;47.450;7.516;2023-08-17T03:00:02;7.10;;;6.40;;
9052;SDS011;4561;47.450;7.516;2023-08-17T03:03:22;9.20;;;6.83;;
9052;SDS011;4561;47.450;7.516;2023-08-17T03:06:43;7.87;;;6.70;;
9052;SDS011;4561;47.450;7.516;2023-08-17T03:10:03;11.83;;;7.40;;
9052;SDS011;4561;47.450;7.516;2023-08-17T03:13:26;8.23;;;7.47;;
9052;SDS011;4561;47.450;7.516;2023-08-17T03:16:50;8.83;;;8.03;;
9052;SDS011;4561;47.450;7.516;2023-08-17T03:20:10;8.57;;;7.83;;
9052;SDS011;4561;47.450;7.516;2023-08-17T03:23:32;8.63;;;6.87;;
9052;SDS011;4561;47.450;7.516;2023-08-17T03:26:52;9.80;;;7.30;;
9052;SDS011;4561;47.450;7.516;2023-08-17T03:30:13;7.50;;;6.80;;
9052;SDS011;4561;47.450;7.516;2023-08-17T03:33:36;9.43;;;6.63;;
9052;SDS011;4561;47.450;7.516;2023-08-17T03:36:56;12.70;;;11.50;;
9052;SDS011;4561;47.450;7.516;2023-08-17T03:40:17;13.57;;;12.17;;
9052;SDS011;4561;47.450;7.516;2023-08-17T03:43:39;13.50;;;11.20;;
9052;SDS011;4561;47.450;7.516;2023-08-17T03:47:00;11.53;;;10.50;;
9052;SDS011;4561;47.450;7.516;2023-08-17T03:50:25;11.00;;;9.90;;
9052;SDS011;4561;47.450;7.516;2023-08-17T03:53:51;11.17;;;10.17;;
9052;SDS011;4561;47.450;7.516;2023-08-17T03:57:14;14.77;;;11.17;;
9052;SDS011;4561;47.450;7.516;2023-08-17T04:00:34;12.23;;;10.97;;
9052;SDS011;4561;47.450;7.516;2023-08-17T04:03:54;12.57;;;11.47;;
9052;SDS011;4561;47.450;7.516;2023-08-17T04:07:21;16.33;;;12.87;;
9052;SDS011;4561;47.450;7.516;2023-08-17T04:10:42;12.23;;;11.03;;
9052;SDS011;4561;47.450;7.516;2023-08-17T04:14:03;15.20;;;10.50;;
9052;SDS011;4561;47.450;7.516;2023-08-17T04:17:24;13.03;;;11.20;;
9052;SDS011;4561;47.450;7.516;2023-08-17T04:20:47;13.97;;;11.77;;
9052;SDS011;4561;47.450;7.516;2023-08-17T04:24:07;16.47;;;13.87;;
9052;SDS011;4561;47.450;7.516;2023-08-17T04:27:30;39.43;;;16.07;;
9052;SDS011;4561;47.450;7.516;2023-08-17T04:30:53;17.97;;;14.63;;
9052;SDS011;4561;47.450;7.516;2023-08-17T04:34:18;17.50;;;15.63;;
9052;SDS011;4561;47.450;7.516;2023-08-17T04:37:39;24.47;;;15.27;;
9052;SDS011;4561;47.450;7.516;2023-08-17T04:40:59;20.67;;;16.93;;
9052;SDS011;4561;47.450;7.516;2023-08-17T04:44:22;37.13;;;18.30;;
9052;SDS011;4561;47.450;7.516;2023-08-17T04:47:44;24.30;;;16.67;;
9052;SDS011;4561;47.450;7.516;2023-08-17T04:51:05;20.30;;;14.57;;
9052;SDS011;4561;47.450;7.516;2023-08-17T04:54:25;48.90;;;16.40;;
9052;SDS011;4561;47.450;7.516;2023-08-17T04:57:45;26.90;;;15.17;;
9052;SDS011;4561;47.450;7.516;2023-08-17T05:01:06;30.83;;;16.47;;
9052;SDS011;4561;47.450;7.516;2023-08-17T05:04:26;18.17;;;15.70;;
9052;SDS011;4561;47.450;7.516;2023-08-17T05:07:49;47.10;;;16.80;;
9052;SDS011;4561;47.450;7.516;2023-08-17T05:11:09;29.77;;;17.47;;
9052;SDS011;4561;47.450;7.516;2023-08-17T05:14:30;95.67;;;19.77;;
9052;SDS011;4561;47.450;7.516;2023-08-17T05:17:50;20.97;;;18.30;;
9052;SDS011;4561;47.450;7.516;2023-08-17T05:21:11;38.00;;;19.00;;
9052;SDS011;4561;47.450;7.516;2023-08-17T05:24:31;15.47;;;14.07;;
9052;SDS011;4561;47.450;7.516;2023-08-17T05:27:51;31.23;;;14.80;;
9052;SDS011;4561;47.450;7.516;2023-08-17T05:31:14;18.57;;;16.77;;
9052;SDS011;4561;47.450;7.516;2023-08-17T05:34:37;24.50;;;16.57;;
9052;SDS011;4561;47.450;7.516;2023-08-17T05:37:57;49.03;;;17.60;;
9052;SDS011;4561;47.450;7.516;2023-08-17T05:41:17;38.20;;;18.33;;
9052;SDS011;4561;47.450;7.516;2023-08-17T05:44:38;29.20;;;17.50;;
9052;SDS011;4561;47.450;7.516;2023-08-17T05:47:58;88.70;;;18.90;;
9052;SDS011;4561;47.450;7.516;2023-08-17T05:51:21;41.67;;;18.37;;
9052;SDS011;4561;47.450;7.516;2023-08-17T05:54:44;29.90;;;18.80;;
9052;SDS011;4561;47.450;7.516;2023-08-17T05:58:07;37.67;;;17.83;;
9052;SDS011;4561;47.450;7.516;2023-08-17T06:01:27;50.03;;;17.90;;
9052;SDS011;4561;47.450;7.516;2023-08-17T06:04:48;20.77;;;18.47;;
9052;SDS011;4561;47.450;7.516;2023-08-17T06:08:11;20.93;;;17.13;;
9052;SDS011;4561;47.450;7.516;2023-08-17T06:11:32;24.67;;;18.80;;
9052;SDS011;4561;47.450;7.516;2023-08-17T06:14:52;25.40;;;17.57;;
9052;SDS011;4561;47.450;7.516;2023-08-17T06:18:12;27.77;;;18.60;;
9052;SDS011;4561;47.450;7.516;2023-08-17T06:21:33;22.80;;;18.37;;
9052;SDS011;4561;47.450;7.516;2023-08-17T06:24:56;19.13;;;17.10;;
9052;SDS011;4561;47.450;7.516;2023-08-17T06:28:18;17.17;;;15.50;;
9052;SDS011;4561;47.450;7.516;2023-08-17T06:31:41;23.10;;;17.33;;
9052;SDS011;4561;47.450;7.516;2023-08-17T06:35:06;33.77;;;17.17;;
9052;SDS011;4561;47.450;7.516;2023-08-17T06:38:27;45.63;;;16.60;;
9052;SDS011;4561;47.450;7.516;2023-08-17T06:41:47;18.73;;;16.93;;
9052;SDS011;4561;47.450;7.516;2023-08-17T06:45:07;56.37;;;20.80;;
9052;SDS011;4561;47.450;7.516;2023-08-17T06:48:30;96.90;;;22.27;;
9052;SDS011;4561;47.450;7.516;2023-08-17T06:51:52;47.80;;;20.47;;
9052;SDS011;4561;47.450;7.516;2023-08-17T06:55:15;138.03;;;22.97;;
9052;SDS011;4561;47.450;7.516;2023-08-17T06:58:36;75.70;;;21.23;;
9052;SDS011;4561;47.450;7.516;2023-08-17T07:01:57;83.53;;;20.97;;
9052;SDS011;4561;47.450;7.516;2023-08-17T07:05:17;89.20;;;20.60;;
9052;SDS011;4561;47.450;7.516;2023-08-17T07:08:40;48.63;;;19.43;;
9052;SDS011;4561;47.450;7.516;2023-08-17T07:12:06;45.77;;;19.33;;
9052;SDS011;4561;47.450;7.516;2023-08-17T07:15:30;29.10;;;18.87;;
9052;SDS011;4561;47.450;7.516;2023-08-17T07:18:52;77.07;;;19.73;;
9052;SDS011;4561;47.450;7.516;2023-08-17T07:22:12;35.83;;;18.47;;
9052;SDS011;4561;47.450;7.516;2023-08-17T07:25:36;17.83;;;16.17;;
9052;SDS011;4561;47.450;7.516;2023-08-17T07:28:56;17.20;;;15.60;;
9052;SDS011;4561;47.450;7.516;2023-08-17T07:32:21;19.47;;;15.67;;
9052;SDS011;4561;47.450;7.516;2023-08-17T07:35:46;15.30;;;13.70;;
9052;SDS011;4561;47.450;7.516;2023-08-17T07:39:08;16.33;;;14.33;;
9052;SDS011;4561;47.450;7.516;2023-08-17T07:42:29;17.03;;;13.87;;
9052;SDS011;4561;47.450;7.516;2023-08-17T07:45:55;15.50;;;13.87;;
9052;SDS011;4561;47.450;7.516;2023-08-17T07:49:19;13.97;;;12.57;;
9052;SDS011;4561;47.450;7.516;2023-08-17T07:52:43;14.77;;;13.47;;
9052;SDS011;4561;47.450;7.516;2023-08-17T07:56:03;15.63;;;13.07;;
9052;SDS011;4561;47.450;7.516;2023-08-17T07:59:24;13.67;;;12.27;;
9052;SDS011;4561;47.450;7.516;2023-08-17T08:02:44;13.63;;;12.23;;
9052;SDS011;4561;47.450;7.516;2023-08-17T08:06:05;11.90;;;10.80;;
9052;SDS011;4561;47.450;7.516;2023-08-17T08:09:28;12.77;;;11.48;;
9052;SDS011;4561;47.450;7.516;2023-08-17T08:12:48;11.43;;;10.43;;
9052;SDS011;4561;47.450;7.516;2023-08-17T08:16:09;10.95;;;9.90;;
9052;SDS011;4561;47.450;7.516;2023-08-17T08:19:34;10.15;;;9.10;;
9052;SDS011;4561;47.450;7.516;2023-08-17T08:22:55;8.77;;;7.93;;
9052;SDS011;4561;47.450;7.516;2023-08-17T08:26:18;11.60;;;10.38;;
9052;SDS011;4561;47.450;7.516;2023-08-17T08:29:40;10.45;;;9.02;;
9052;SDS011;4561;47.450;7.516;2023-08-17T08:33:03;10.90;;;9.73;;
9052;SDS011;4561;47.450;7.516;2023-08-17T08:36:24;12.52;;;9.55;;
9052;SDS011;4561;47.450;7.516;2023-08-17T08:39:51;12.60;;;10.95;;
9052;SDS011;4561;47.450;7.516;2023-08-17T08:43:12;10.15;;;9.05;;
9052;SDS011;4561;47.450;7.516;2023-08-17T08:46:33;10.68;;;9.45;;
9052;SDS011;4561;47.450;7.516;2023-08-17T08:53:24;14.48;;;10.43;;
9052;SDS011;4561;47.450;7.516;2023-08-17T08:56:51;11.80;;;10.63;;
9052;SDS011;4561;47.450;7.516;2023-08-17T09:00:15;12.77;;;11.57;;
9052;SDS011;4561;47.450;7.516;2023-08-17T09:03:39;12.23;;;11.13;;
9052;SDS011;4561;47.450;7.516;2023-08-17T09:06:59;12.77;;;11.50;;
9052;SDS011;4561;47.450;7.516;2023-08-17T09:10:20;11.40;;;10.30;;
9052;SDS011;4561;47.450;7.516;2023-08-17T09:13:41;12.07;;;9.68;;
9052;SDS011;4561;47.450;7.516;2023-08-17T09:17:03;10.52;;;9.15;;
9052;SDS011;4561;47.450;7.516;2023-08-17T09:24:06;14.60;;;8.18;;
9052;SDS011;4561;47.450;7.516;2023-08-17T09:27:29;9.23;;;7.40;;
9052;SDS011;4561;47.450;7.516;2023-08-17T09:34:15;8.95;;;7.07;;
9052;SDS011;4561;47.450;7.516;2023-08-17T09:37:38;8.55;;;7.22;;
9052;SDS011;4561;47.450;7.516;2023-08-17T09:40:58;8.40;;;7.57;;
9052;SDS011;4561;47.450;7.516;2023-08-17T09:44:22;8.27;;;7.50;;
9052;SDS011;4561;47.450;7.516;2023-08-17T09:47:42;8.43;;;7.15;;
9052;SDS011;4561;47.450;7.516;2023-08-17T09:51:03;9.00;;;7.80;;
9052;SDS011;4561;47.450;7.516;2023-08-17T09:54:25;7.70;;;7.00;;
9052;SDS011;4561;47.450;7.516;2023-08-17T09:57:48;7.20;;;6.50;;
9052;SDS011;4561;47.450;7.516;2023-08-17T10:01:11;8.93;;;8.00;;
9052;SDS011;4561;47.450;7.516;2023-08-17T10:04:33;8.27;;;7.25;;
9052;SDS011;4561;47.450;7.516;2023-08-17T10:07:56;7.97;;;6.28;;
9052;SDS011;4561;47.450;7.516;2023-08-17T10:11:20;8.15;;;6.38;;
9052;SDS011;4561;47.450;7.516;2023-08-17T10:14:44;6.30;;;5.43;;
9052;SDS011;4561;47.450;7.516;2023-08-17T10:25:01;6.78;;;4.05;;
9052;SDS011;4561;47.450;7.516;2023-08-17T10:28:24;7.43;;;3.90;;
9052;SDS011;4561;47.450;7.516;2023-08-17T10:31:44;9.93;;;3.50;;
9052;SDS011;4561;47.450;7.516;2023-08-17T10:35:07;10.05;;;4.13;;
9052;SDS011;4561;47.450;7.516;2023-08-17T10:38:28;5.85;;;3.20;;
9052;SDS011;4561;47.450;7.516;2023-08-17T10:41:49;8.25;;;3.20;;
9052;SDS011;4561;47.450;7.516;2023-08-17T10:48:52;12.25;;;3.25;;
9052;SDS011;4561;47.450;7.516;2023-08-17T10:52:12;8.73;;;3.00;;
9052;SDS011;4561;47.450;7.516;2023-08-17T10:55:36;7.15;;;3.05;;
9052;SDS011;4561;47.450;7.516;2023-08-17T10:59:01;9.60;;;2.75;;
9052;SDS011;4561;47.450;7.516;2023-08-17T11:02:22;8.85;;;3.50;;
9052;SDS011;4561;47.450;7.516;2023-08-17T11:09:15;8.05;;;3.20;;
9052;SDS011;4561;47.450;7.516;2023-08-17T11:12:40;5.70;;;3.28;;
9052;SDS011;4561;47.450;7.516;2023-08-17T11:16:01;6.45;;;3.58;;
9052;SDS011;4561;47.450;7.516;2023-08-17T11:19:23;5.78;;;3.83;;
9052;SDS011;4561;47.450;7.516;2023-08-17T11:22:43;7.28;;;3.75;;
9052;SDS011;4561;47.450;7.516;2023-08-17T11:26:04;7.00;;;3.47;;
9052;SDS011;4561;47.450;7.516;2023-08-17T11:29:25;8.95;;;3.33;;
9052;SDS011;4561;47.450;7.516;2023-08-17T11:32:45;9.38;;;3.42;;
9052;SDS011;4561;47.450;7.516;2023-08-17T11:36:06;9.15;;;4.20;;
9052;SDS011;4561;47.450;7.516;2023-08-17T11:39:32;13.52;;;3.90;;
9052;SDS011;4561;47.450;7.516;2023-08-17T11:42:53;14.57;;;4.05;;
9052;SDS011;4561;47.450;7.516;2023-08-17T11:46:13;8.15;;;3.75;;
9052;SDS011;4561;47.450;7.516;2023-08-17T11:49:40;10.88;;;3.55;;
9052;SDS011;4561;47.450;7.516;2023-08-17T11:53:01;9.25;;;4.03;;
9052;SDS011;4561;47.450;7.516;2023-08-17T11:56:21;9.43;;;3.65;;
9052;SDS011;4561;47.450;7.516;2023-08-17T11:59:42;10.15;;;3.95;;
9052;SDS011;4561;47.450;7.516;2023-08-17T12:03:04;8.48;;;3.30;;
9052;SDS011;4561;47.450;7.516;2023-08-17T12:06:25;10.38;;;3.42;;
9052;SDS011;4561;47.450;7.516;2023-08-17T12:09:46;17.00;;;3.92;;
9052;SDS011;4561;47.450;7.516;2023-08-17T12:13:10;9.90;;;3.40;;
9052;SDS011;4561;47.450;7.516;2023-08-17T12:16:31;11.32;;;3.45;;
9052;SDS011;4561;47.450;7.516;2023-08-17T12:19:54;12.98;;;3.38;;
9052;SDS011;4561;47.450;7.516;2023-08-17T12:23:15;11.52;;;3.10;;
9052;SDS011;4561;47.450;7.516;2023-08-17T12:26:37;13.20;;;3.33;;
9052;SDS011;4561;47.450;7.516;2023-08-17T12:30:01;10.95;;;3.40;;
9052;SDS011;4561;47.450;7.516;2023-08-17T12:33:21;12.20;;;3.03;;
9052;SDS011;4561;47.450;7.516;2023-08-17T12:36:44;12.27;;;3.63;;
9052;SDS011;4561;47.450;7.516;2023-08-17T12:40:04;12.07;;;3.58;;
9052;SDS011;4561;47.450;7.516;2023-08-17T12:43:30;9.82;;;3.55;;
9052;SDS011;4561;47.450;7.516;2023-08-17T12:46:53;12.23;;;3.15;;
9052;SDS011;4561;47.450;7.516;2023-08-17T12:50:13;12.65;;;3.50;;
9052;SDS011;4561;47.450;7.516;2023-08-17T12:53:33;11.93;;;3.35;;
9052;SDS011;4561;47.450;7.516;2023-08-17T12:56:54;13.23;;;3.53;;
9052;SDS011;4561;47.450;7.516;2023-08-17T13:00:19;10.20;;;3.25;;
9052;SDS011;4561;47.450;7.516;2023-08-17T13:03:46;14.00;;;3.70;;
9052;SDS011;4561;47.450;7.516;2023-08-17T13:07:09;8.45;;;3.28;;
9052;SDS011;4561;47.450;7.516;2023-08-17T13:10:29;11.52;;;3.55;;
9052;SDS011;4561;47.450;7.516;2023-08-17T13:13:50;12.38;;;3.20;;
9052;SDS011;4561;47.450;7.516;2023-08-17T13:17:12;11.50;;;3.20;;
9052;SDS011;4561;47.450;7.516;2023-08-17T13:20:34;11.32;;;3.50;;
9052;SDS011;4561;47.450;7.516;2023-08-17T13:23:55;8.00;;;3.25;;
9052;SDS011;4561;47.450;7.516;2023-08-17T13:27:16;8.82;;;3.28;;
9052;SDS011;4561;47.450;7.516;2023-08-17T13:30:37;9.93;;;3.25;;
9052;SDS011;4561;47.450;7.516;2023-08-17T13:33:58;14.38;;;3.63;;
9052;SDS011;4561;47.450;7.516;2023-08-17T13:37:24;8.07;;;3.28;;
9052;SDS011;4561;47.450;7.516;2023-08-17T13:40:44;15.90;;;3.75;;
9052;SDS011;4561;47.450;7.516;2023-08-17T13:44:05;11.55;;;3.47;;
9052;SDS011;4561;47.450;7.516;2023-08-17T13:47:26;17.08;;;4.30;;
9052;SDS011;4561;47.450;7.516;2023-08-17T13:50:52;14.80;;;3.80;;
9052;SDS011;4561;47.450;7.516;2023-08-17T13:54:12;15.00;;;3.33;;
9052;SDS011;4561;47.450;7.516;2023-08-17T13:57:34;13.10;;;3.67;;
9052;SDS011;4561;47.450;7.516;2023-08-17T14:00:58;8.93;;;4.00;;
9052;SDS011;4561;47.450;7.516;2023-08-17T14:04:20;11.90;;;3.95;;
9052;SDS011;4561;47.450;7.516;2023-08-17T14:07:45;13.85;;;4.10;;
9052;SDS011;4561;47.450;7.516;2023-08-17T14:11:08;14.13;;;4.43;;
9052;SDS011;4561;47.450;7.516;2023-08-17T14:14:31;14.10;;;3.92;;
9052;SDS011;4561;47.450;7.516;2023-08-17T14:17:51;8.60;;;4.30;;
9052;SDS011;4561;47.450;7.516;2023-08-17T14:21:14;10.02;;;4.43;;
9052;SDS011;4561;47.450;7.516;2023-08-17T14:24:36;7.43;;;4.75;;
9052;SDS011;4561;47.450;7.516;2023-08-17T14:27:59;9.35;;;4.70;;
9052;SDS011;4561;47.450;7.516;2023-08-17T14:31:19;10.80;;;5.00;;
9052;SDS011;4561;47.450;7.516;2023-08-17T14:34:40;12.70;;;4.90;;
9052;SDS011;4561;47.450;7.516;2023-08-17T14:38:03;9.82;;;4.35;;
9052;SDS011;4561;47.450;7.516;2023-08-17T14:41:27;7.28;;;4.00;;
9052;SDS011;4561;47.450;7.516;2023-08-17T14:44:52;7.90;;;4.30;;
9052;SDS011;4561;47.450;7.516;2023-08-17T14:48:12;11.32;;;4.00;;
9052;SDS011;4561;47.450;7.516;2023-08-17T14:51:36;9.30;;;4.60;;
9052;SDS011;4561;47.450;7.516;2023-08-17T14:55:00;10.82;;;4.57;;
9052;SDS011;4561;47.450;7.516;2023-08-17T14:58:21;11.38;;;4.43;;
9052;SDS011;4561;47.450;7.516;2023-08-17T15:01:41;12.48;;;4.38;;
9052;SDS011;4561;47.450;7.516;2023-08-17T15:05:02;9.02;;;3.67;;
9052;SDS011;4561;47.450;7.516;2023-08-17T15:08:22;8.43;;;4.15;;
9052;SDS011;4561;47.450;7.516;2023-08-17T15:11:42;9.52;;;3.95;;
9052;SDS011;4561;47.450;7.516;2023-08-17T15:15:06;10.15;;;4.50;;
9052;SDS011;4561;47.450;7.516;2023-08-17T15:18:27;10.93;;;4.28;;
9052;SDS011;4561;47.450;7.516;2023-08-17T15:21:48;7.85;;;4.10;;
9052;SDS011;4561;47.450;7.516;2023-08-17T15:25:08;6.57;;;4.20;;
9052;SDS011;4561;47.450;7.516;2023-08-17T15:28:31;13.63;;;4.25;;
9052;SDS011;4561;47.450;7.516;2023-08-17T15:31:52;9.73;;;4.15;;
9052;SDS011;4561;47.450;7.516;2023-08-17T15:35:15;9.82;;;4.22;;
9052;SDS011;4561;47.450;7.516;2023-08-17T15:38:35;8.88;;;4.03;;
9052;SDS011;4561;47.450;7.516;2023-08-17T15:41:58;8.45;;;4.00;;
9052;SDS011;4561;47.450;7.516;2023-08-17T15:45:19;8.38;;;3.95;;
9052;SDS011;4561;47.450;7.516;2023-08-17T15:48:42;9.82;;;3.85;;
9052;SDS011;4561;47.450;7.516;2023-08-17T15:52:02;11.38;;;4.43;;
9052;SDS011;4561;47.450;7.516;2023-08-17T15:55:23;10.30;;;4.07;;
9052;SDS011;4561;47.450;7.516;2023-08-17T15:58:47;11.68;;;4.05;;
9052;SDS011;4561;47.450;7.516;2023-08-17T16:02:08;11.73;;;3.72;;
9052;SDS011;4561;47.450;7.516;2023-08-17T16:05:28;11.45;;;3.95;;
9052;SDS011;4561;47.450;7.516;2023-08-17T16:08:49;8.55;;;4.20;;
9052;SDS011;4561;47.450;7.516;2023-08-17T16:12:11;9.77;;;4.03;;
9052;SDS011;4561;47.450;7.516;2023-08-17T16:15:32;9.63;;;3.70;;
9052;SDS011;4561;47.450;7.516;2023-08-17T16:18:52;7.07;;;3.63;;
9052;SDS011;4561;47.450;7.516;2023-08-17T16:22:17;8.30;;;3.83;;
9052;SDS011;4561;47.450;7.516;2023-08-17T16:25:37;6.25;;;3.88;;
9052;SDS011;4561;47.450;7.516;2023-08-17T16:28:58;6.18;;;3.60;;
9052;SDS011;4561;47.450;7.516;2023-08-17T16:32:20;5.47;;;3.70;;
9052;SDS011;4561;47.450;7.516;2023-08-17T16:35:43;5.45;;;3.55;;
9052;SDS011;4561;47.450;7.516;2023-08-17T16:39:03;4.90;;;3.72;;
9052;SDS011;4561;47.450;7.516;2023-08-17T16:42:28;6.13;;;3.58;;
9052;SDS011;4561;47.450;7.516;2023-08-17T16:45:48;7.45;;;3.50;;
9052;SDS011;4561;47.450;7.516;2023-08-17T16:49:09;9.93;;;3.15;;
9052;SDS011;4561;47.450;7.516;2023-08-17T16:52:29;6.47;;;3.40;;
9052;SDS011;4561;47.450;7.516;2023-08-17T16:55:50;6.75;;;3.42;;
9052;SDS011;4561;47.450;7.516;2023-08-17T16:59:10;6.97;;;3.20;;
9052;SDS011;4561;47.450;7.516;2023-08-17T17:02:31;8.90;;;3.20;;
9052;SDS011;4561;47.450;7.516;2023-08-17T17:05:56;6.97;;;3.42;;
9052;SDS011;4561;47.450;7.516;2023-08-17T17:09:17;8.52;;;3.40;;
9052;SDS011;4561;47.450;7.516;2023-08-17T17:12:40;5.80;;;3.05;;
9052;SDS011;4561;47.450;7.516;2023-08-17T17:16:01;8.15;;;3.47;;
9052;SDS011;4561;47.450;7.516;2023-08-17T17:19:23;5.93;;;2.78;;
9052;SDS011;4561;47.450;7.516;2023-08-17T17:22:44;5.78;;;2.92;;
9052;SDS011;4561;47.450;7.516;2023-08-17T17:26:06;8.18;;;2.90;;
9052;SDS011;4561;47.450;7.516;2023-08-17T17:29:30;7.18;;;3.20;;
9052;SDS011;4561;47.450;7.516;2023-08-17T17:32:50;7.32;;;3.30;;
9052;SDS011;4561;47.450;7.516;2023-08-17T17:36:11;5.68;;;2.90;;
9052;SDS011;4561;47.450;7.516;2023-08-17T17:39:34;5.95;;;2.88;;
9052;SDS011;4561;47.450;7.516;2023-08-17T17:42:54;5.63;;;2.85;;
9052;SDS011;4561;47.450;7.516;2023-08-17T17:46:14;7.30;;;3.17;;
9052;SDS011;4561;47.450;7.516;2023-08-17T17:49:35;6.63;;;3.00;;
9052;SDS011;4561;47.450;7.516;2023-08-17T17:52:55;5.05;;;3.05;;
9052;SDS011;4561;47.450;7.516;2023-08-17T17:56:16;8.77;;;3.15;;
9052;SDS011;4561;47.450;7.516;2023-08-17T17:59:36;5.18;;;3.00;;
9052;SDS011;4561;47.450;7.516;2023-08-17T18:03:12;6.40;;;2.90;;
9052;SDS011;4561;47.450;7.516;2023-08-17T18:06:33;14.25;;;3.13;;
9052;SDS011;4561;47.450;7.516;2023-08-17T18:09:54;10.30;;;3.22;;
9052;SDS011;4561;47.450;7.516;2023-08-17T18:13:15;4.20;;;2.75;;
9052;SDS011;4561;47.450;7.516;2023-08-17T18:16:38;10.77;;;3.65;;
9052;SDS011;4561;47.450;7.516;2023-08-17T18:19:59;8.93;;;3.25;;
9052;SDS011;4561;47.450;7.516;2023-08-17T18:23:19;9.15;;;3.20;;
9052;SDS011;4561;47.450;7.516;2023-08-17T18:26:39;10.68;;;3.50;;
9052;SDS011;4561;47.450;7.516;2023-08-17T18:30:02;8.68;;;3.00;;
9052;SDS011;4561;47.450;7.516;2023-08-17T18:33:29;11.07;;;2.97;;
9052;SDS011;4561;47.450;7.516;2023-08-17T18:36:50;7.60;;;3.10;;
9052;SDS011;4561;47.450;7.516;2023-08-17T18:40:13;6.10;;;2.60;;
9052;SDS011;4561;47.450;7.516;2023-08-17T18:43:34;7.20;;;3.38;;
9052;SDS011;4561;47.450;7.516;2023-08-17T18:46:57;6.07;;;2.83;;
9052;SDS011;4561;47.450;7.516;2023-08-17T18:50:21;7.55;;;3.00;;
9052;SDS011;4561;47.450;7.516;2023-08-17T18:53:41;5.43;;;2.70;;
9052;SDS011;4561;47.450;7.516;2023-08-17T18:57:02;8.88;;;2.90;;
9052;SDS011;4561;47.450;7.516;2023-08-17T19:00:22;4.38;;;3.13;;
9052;SDS011;4561;47.450;7.516;2023-08-17T19:03:43;7.40;;;2.90;;
9052;SDS011;4561;47.450;7.516;2023-08-17T19:07:03;8.25;;;2.90;;
9052;SDS011;4561;47.450;7.516;2023-08-17T19:10:28;10.20;;;3.22;;
9052;SDS011;4561;47.450;7.516;2023-08-17T19:13:48;6.25;;;3.05;;
9052;SDS011;4561;47.450;7.516;2023-08-17T19:17:09;11.20;;;3.00;;
9052;SDS011;4561;47.450;7.516;2023-08-17T19:20:29;5.60;;;2.80;;
9052;SDS011;4561;47.450;7.516;2023-08-17T19:23:52;7.65;;;3.15;;
9052;SDS011;4561;47.450;7.516;2023-08-17T19:27:12;6.38;;;2.80;;
9052;SDS011;4561;47.450;7.516;2023-08-17T19:30:35;6.18;;;3.15;;
9052;SDS011;4561;47.450;7.516;2023-08-17T19:33:55;7.18;;;2.95;;
9052;SDS011;4561;47.450;7.516;2023-08-17T19:37:16;9.80;;;3.13;;
9052;SDS011;4561;47.450;7.516;2023-08-17T19:40:39;9.20;;;3.08;;
9052;SDS011;4561;47.450;7.516;2023-08-17T19:44:01;7.28;;;3.03;;
9052;SDS011;4561;47.450;7.516;2023-08-17T19:47:22;8.73;;;3.17;;
9052;SDS011;4561;47.450;7.516;2023-08-17T19:50:45;6.90;;;2.65;;
9052;SDS011;4561;47.450;7.516;2023-08-17T19:54:07;6.65;;;3.13;;
9052;SDS011;4561;47.450;7.516;2023-08-17T19:57:28;9.65;;;3.10;;
9052;SDS011;4561;47.450;7.516;2023-08-17T20:00:52;7.78;;;2.70;;
9052;SDS011;4561;47.450;7.516;2023-08-17T20:04:15;8.27;;;2.88;;
9052;SDS011;4561;47.450;7.516;2023-08-17T20:07:36;4.07;;;2.65;;
9052;SDS011;4561;47.450;7.516;2023-08-17T20:11:10;6.25;;;2.30;;
9052;SDS011;4561;47.450;7.516;2023-08-17T20:14:35;9.55;;;3.05;;
9052;SDS011;4561;47.450;7.516;2023-08-17T20:17:55;6.43;;;3.15;;
9052;SDS011;4561;47.450;7.516;2023-08-17T20:21:16;7.82;;;2.58;;
9052;SDS011;4561;47.450;7.516;2023-08-17T20:24:38;5.75;;;3.03;;
9052;SDS011;4561;47.450;7.516;2023-08-17T20:27:59;7.40;;;2.25;;
9052;SDS011;4561;47.450;7.516;2023-08-17T20:31:21;6.63;;;2.50;;
9052;SDS011;4561;47.450;7.516;2023-08-17T20:34:44;7.53;;;2.42;;
9052;SDS011;4561;47.450;7.516;2023-08-17T20:38:04;10.73;;;2.92;;
9052;SDS011;4561;47.450;7.516;2023-08-17T20:41:24;6.80;;;2.70;;
9052;SDS011;4561;47.450;7.516;2023-08-17T20:44:47;8.98;;;2.60;;
9052;SDS011;4561;47.450;7.516;2023-08-17T20:48:08;10.80;;;2.60;;
9052;SDS011;4561;47.450;7.516;2023-08-17T20:51:29;6.88;;;2.60;;
9052;SDS011;4561;47.450;7.516;2023-08-17T20:54:49;7.25;;;2.97;;
9052;SDS011;4561;47.450;7.516;2023-08-17T20:58:12;5.68;;;2.80;;
9052;SDS011;4561;47.450;7.516;2023-08-17T21:01:35;5.68;;;2.63;;
9052;SDS011;4561;47.450;7.516;2023-08-17T21:04:55;6.63;;;2.72;;
9052;SDS011;4561;47.450;7.516;2023-08-17T21:08:15;11.18;;;3.03;;
9052;SDS011;4561;47.450;7.516;2023-08-17T21:11:38;5.03;;;2.42;;